sensor_id;sensor_type;location;lat;lon;timestamp;P1;durP1;ratioP1;P2;durP2;ratioP2
12719;SDS011;6424;48.520;11.228;2023-07-13T00:00:20;6.13;;;5.53;;
12719;SDS011;6424;48.520;11.228;2023-07-13T00:03:02;5.17;;;4.67;;
12719;SDS011;6424;48.520;11.228;2023-07-13T00:05:44;5.70;;;5.10;;
12719;SDS011;6424;48.520;11.228;2023-07-13T00:08:25;5.73;;;5.23;;
12719;SDS011;6424;48.520;11.228;2023-07-13T00:11:06;7.20;;;5.83;;
12719;SDS011;6424;48.520;11.228;2023-07-13T00:13:47;6.67;;;5.77;;
12719;SDS011;6424;48.520;11.228;2023-07-13T00:16:27;6.27;;;5.50;;
12719;SDS011;6424;48.520;11.228;2023-07-13T00:18:53;7.43;;;5.70;;
12719;SDS011;6424;48.520;11.228;2023-07-13T00:21:34;6.17;;;5.57;;
12719;SDS011;6424;48.520;11.228;2023-07-13T00:24:15;7.17;;;6.00;;
12719;SDS011;6424;48.520;11.228;2023-07-13T00:27:03;6.50;;;5.67;;
12719;SDS011;6424;48.520;11.228;2023-07-13T00:29:29;8.40;;;6.03;;
12719;SDS011;6424;48.520;11.228;2023-07-13T00:32:10;6.67;;;5.57;;
12719;SDS011;6424;48.520;11.228;2023-07-13T00:34:51;7.90;;;6.17;;
12719;SDS011;6424;48.520;11.228;2023-07-13T00:37:32;8.83;;;6.20;;
12719;SDS011;6424;48.520;11.228;2023-07-13T00:40:15;6.70;;;6.10;;
12719;SDS011;6424;48.520;11.228;2023-07-13T00:42:57;8.10;;;6.73;;
12719;SDS011;6424;48.520;11.228;2023-07-13T00:48:24;7.10;;;6.40;;
12719;SDS011;6424;48.520;11.228;2023-07-13T00:51:07;8.17;;;6.50;;
12719;SDS011;6424;48.520;11.228;2023-07-13T00:53:50;8.07;;;6.17;;
12719;SDS011;6424;48.520;11.228;2023-07-13T00:56:33;8.43;;;6.73;;
12719;SDS011;6424;48.520;11.228;2023-07-13T00:59:15;8.07;;;7.27;;
12719;SDS011;6424;48.520;11.228;2023-07-13T01:01:57;9.47;;;6.90;;
12719;SDS011;6424;48.520;11.228;2023-07-13T01:04:38;8.97;;;6.83;;
12719;SDS011;6424;48.520;11.228;2023-07-13T01:07:19;8.40;;;7.50;;
12719;SDS011;6424;48.520;11.228;2023-07-13T01:10:00;8.20;;;7.40;;
12719;SDS011;6424;48.520;11.228;2023-07-13T01:12:41;10.17;;;7.47;;
12719;SDS011;6424;48.520;11.228;2023-07-13T01:15:33;9.10;;;7.03;;
12719;SDS011;6424;48.520;11.228;2023-07-13T01:18:15;9.47;;;7.67;;
12719;SDS011;6424;48.520;11.228;2023-07-13T01:20:59;9.83;;;7.73;;
12719;SDS011;6424;48.520;11.228;2023-07-13T01:23:41;11.17;;;7.87;;
12719;SDS011;6424;48.520;11.228;2023-07-13T01:26:09;10.87;;;7.80;;
12719;SDS011;6424;48.520;11.228;2023-07-13T01:28:50;8.23;;;7.50;;
12719;SDS011;6424;48.520;11.228;2023-07-13T01:31:31;8.10;;;7.23;;
12719;SDS011;6424;48.520;11.228;2023-07-13T01:34:11;8.77;;;7.87;;
12719;SDS011;6424;48.520;11.228;2023-07-13T01:36:52;10.73;;;8.23;;
12719;SDS011;6424;48.520;11.228;2023-07-13T01:39:34;9.60;;;8.17;;
12719;SDS011;6424;48.520;11.228;2023-07-13T01:42:15;12.60;;;7.93;;
12719;SDS011;6424;48.520;11.228;2023-07-13T01:44:56;11.13;;;7.93;;
12719;SDS011;6424;48.520;11.228;2023-07-13T01:47:37;11.00;;;7.07;;
12719;SDS011;6424;48.520;11.228;2023-07-13T01:50:17;8.93;;;7.83;;
12719;SDS011;6424;48.520;11.228;2023-07-13T01:52:58;8.33;;;7.13;;
12719;SDS011;6424;48.520;11.228;2023-07-13T01:55:39;13.90;;;8.90;;
12719;SDS011;6424;48.520;11.228;2023-07-13T01:58:20;9.20;;;8.30;;
12719;SDS011;6424;48.520;11.228;2023-07-13T02:01:01;10.00;;;7.80;;
12719;SDS011;6424;48.520;11.228;2023-07-13T02:03:41;8.10;;;7.40;;
12719;SDS011;6424;48.520;11.228;2023-07-13T02:06:22;8.33;;;7.53;;
12719;SDS011;6424;48.520;11.228;2023-07-13T02:09:03;9.60;;;8.27;;
12719;SDS011;6424;48.520;11.228;2023-07-13T02:11:44;9.77;;;8.43;;
12719;SDS011;6424;48.520;11.228;2023-07-13T02:14:24;9.63;;;8.67;;
12719;SDS011;6424;48.520;11.228;2023-07-13T02:17:05;15.67;;;8.60;;
12719;SDS011;6424;48.520;11.228;2023-07-13T02:19:46;10.13;;;8.10;;
12719;SDS011;6424;48.520;11.228;2023-07-13T02:22:12;12.73;;;8.80;;
12719;SDS011;6424;48.520;11.228;2023-07-13T02:24:53;10.70;;;9.03;;
12719;SDS011;6424;48.520;11.228;2023-07-13T02:27:33;10.80;;;9.37;;
12719;SDS011;6424;48.520;11.228;2023-07-13T02:30:14;11.33;;;9.37;;
12719;SDS011;6424;48.520;11.228;2023-07-13T02:32:55;12.37;;;9.60;;
12719;SDS011;6424;48.520;11.228;2023-07-13T02:35:37;12.90;;;10.13;;
12719;SDS011;6424;48.520;11.228;2023-07-13T02:38:17;14.50;;;10.33;;
12719;SDS011;6424;48.520;11.228;2023-07-13T02:40:58;10.47;;;9.37;;
12719;SDS011;6424;48.520;11.228;2023-07-13T02:43:39;12.80;;;9.50;;
12719;SDS011;6424;48.520;11.228;2023-07-13T02:46:20;13.00;;;10.47;;
12719;SDS011;6424;48.520;11.228;2023-07-13T02:49:01;14.20;;;10.43;;
12719;SDS011;6424;48.520;11.228;2023-07-13T02:51:42;15.07;;;10.60;;
12719;SDS011;6424;48.520;11.228;2023-07-13T02:54:23;11.13;;;9.53;;
12719;SDS011;6424;48.520;11.228;2023-07-13T02:57:04;13.17;;;9.87;;
12719;SDS011;6424;48.520;11.228;2023-07-13T02:59:45;16.23;;;10.43;;
12719;SDS011;6424;48.520;11.228;2023-07-13T03:02:11;13.73;;;9.43;;
12719;SDS011;6424;48.520;11.228;2023-07-13T03:04:51;12.63;;;10.27;;
12719;SDS011;6424;48.520;11.228;2023-07-13T03:07:18;13.70;;;9.77;;
12719;SDS011;6424;48.520;11.228;2023-07-13T03:09:59;12.13;;;8.97;;
12719;SDS011;6424;48.520;11.228;2023-07-13T03:12:40;10.23;;;7.83;;
12719;SDS011;6424;48.520;11.228;2023-07-13T03:15:20;10.87;;;7.50;;
12719;SDS011;6424;48.520;11.228;2023-07-13T03:18:01;9.47;;;7.40;;
12719;SDS011;6424;48.520;11.228;2023-07-13T03:20:42;9.87;;;7.90;;
12719;SDS011;6424;48.520;11.228;2023-07-13T03:23:24;12.67;;;8.33;;
12719;SDS011;6424;48.520;11.228;2023-07-13T03:26:07;11.30;;;8.30;;
12719;SDS011;6424;48.520;11.228;2023-07-13T03:28:54;12.67;;;7.83;;
12719;SDS011;6424;48.520;11.228;2023-07-13T03:31:36;7.00;;;6.30;;
12719;SDS011;6424;48.520;11.228;2023-07-13T03:34:17;10.73;;;7.70;;
12719;SDS011;6424;48.520;11.228;2023-07-13T03:36:58;14.37;;;7.13;;
12719;SDS011;6424;48.520;11.228;2023-07-13T03:39:38;10.10;;;7.07;;
12719;SDS011;6424;48.520;11.228;2023-07-13T03:42:19;14.40;;;7.03;;
12719;SDS011;6424;48.520;11.228;2023-07-13T03:45:00;10.17;;;6.77;;
12719;SDS011;6424;48.520;11.228;2023-07-13T03:47:41;13.40;;;6.30;;
12719;SDS011;6424;48.520;11.228;2023-07-13T03:50:22;12.40;;;7.07;;
12719;SDS011;6424;48.520;11.228;2023-07-13T03:53:02;11.33;;;6.77;;
12719;SDS011;6424;48.520;11.228;2023-07-13T03:55:43;8.77;;;5.93;;
12719;SDS011;6424;48.520;11.228;2023-07-13T03:58:26;10.17;;;5.80;;
12719;SDS011;6424;48.520;11.228;2023-07-13T04:01:10;10.00;;;5.87;;
12719;SDS011;6424;48.520;11.228;2023-07-13T04:03:52;9.53;;;5.33;;
12719;SDS011;6424;48.520;11.228;2023-07-13T04:06:33;8.57;;;5.20;;
12719;SDS011;6424;48.520;11.228;2023-07-13T04:09:14;9.07;;;5.00;;
12719;SDS011;6424;48.520;11.228;2023-07-13T04:11:55;12.07;;;4.87;;
12719;SDS011;6424;48.520;11.228;2023-07-13T04:14:35;12.57;;;4.87;;
12719;SDS011;6424;48.520;11.228;2023-07-13T04:17:17;11.00;;;5.07;;
12719;SDS011;6424;48.520;11.228;2023-07-13T04:19:58;6.40;;;4.47;;
12719;SDS011;6424;48.520;11.228;2023-07-13T04:22:38;6.40;;;3.90;;
12719;SDS011;6424;48.520;11.228;2023-07-13T04:25:20;7.03;;;4.83;;
12719;SDS011;6424;48.520;11.228;2023-07-13T04:28:02;6.57;;;4.33;;
12719;SDS011;6424;48.520;11.228;2023-07-13T04:30:44;7.57;;;4.37;;
12719;SDS011;6424;48.520;11.228;2023-07-13T04:33:25;9.53;;;4.50;;
12719;SDS011;6424;48.520;11.228;2023-07-13T04:36:08;6.73;;;4.53;;
12719;SDS011;6424;48.520;11.228;2023-07-13T04:38:49;11.87;;;4.80;;
12719;SDS011;6424;48.520;11.228;2023-07-13T04:41:30;6.57;;;4.80;;
12719;SDS011;6424;48.520;11.228;2023-07-13T04:44:11;10.03;;;4.90;;
12719;SDS011;6424;48.520;11.228;2023-07-13T04:46:51;8.17;;;4.97;;
12719;SDS011;6424;48.520;11.228;2023-07-13T04:49:32;7.40;;;4.27;;
12719;SDS011;6424;48.520;11.228;2023-07-13T04:52:13;10.70;;;3.97;;
12719;SDS011;6424;48.520;11.228;2023-07-13T04:54:54;7.00;;;4.13;;
12719;SDS011;6424;48.520;11.228;2023-07-13T04:57:34;5.00;;;3.77;;
12719;SDS011;6424;48.520;11.228;2023-07-13T05:00:15;10.47;;;3.90;;
12719;SDS011;6424;48.520;11.228;2023-07-13T05:02:57;8.17;;;3.80;;
12719;SDS011;6424;48.520;11.228;2023-07-13T05:05:38;6.00;;;3.70;;
12719;SDS011;6424;48.520;11.228;2023-07-13T05:08:19;10.23;;;4.17;;
12719;SDS011;6424;48.520;11.228;2023-07-13T05:11:00;5.83;;;3.00;;
12719;SDS011;6424;48.520;11.228;2023-07-13T05:13:42;9.27;;;3.87;;
12719;SDS011;6424;48.520;11.228;2023-07-13T05:16:07;8.00;;;3.73;;
12719;SDS011;6424;48.520;11.228;2023-07-13T05:18:33;8.83;;;4.07;;
12719;SDS011;6424;48.520;11.228;2023-07-13T05:21:14;6.53;;;3.80;;
12719;SDS011;6424;48.520;11.228;2023-07-13T05:23:55;7.07;;;3.67;;
12719;SDS011;6424;48.520;11.228;2023-07-13T05:26:21;8.13;;;3.70;;
12719;SDS011;6424;48.520;11.228;2023-07-13T05:28:47;9.13;;;3.80;;
12719;SDS011;6424;48.520;11.228;2023-07-13T05:31:28;7.03;;;3.47;;
12719;SDS011;6424;48.520;11.228;2023-07-13T05:34:08;4.40;;;2.93;;
12719;SDS011;6424;48.520;11.228;2023-07-13T05:36:49;7.23;;;2.90;;
12719;SDS011;6424;48.520;11.228;2023-07-13T05:39:30;4.27;;;2.80;;
12719;SDS011;6424;48.520;11.228;2023-07-13T05:42:11;7.60;;;3.00;;
12719;SDS011;6424;48.520;11.228;2023-07-13T05:44:51;5.83;;;2.93;;
12719;SDS011;6424;48.520;11.228;2023-07-13T05:47:17;6.57;;;3.10;;
12719;SDS011;6424;48.520;11.228;2023-07-13T05:49:58;3.40;;;2.37;;
12719;SDS011;6424;48.520;11.228;2023-07-13T05:52:39;6.30;;;2.50;;
12719;SDS011;6424;48.520;11.228;2023-07-13T05:55:20;8.90;;;2.43;;
12719;SDS011;6424;48.520;11.228;2023-07-13T05:58:01;5.87;;;2.53;;
12719;SDS011;6424;48.520;11.228;2023-07-13T06:00:41;3.53;;;2.30;;
12719;SDS011;6424;48.520;11.228;2023-07-13T06:03:22;8.40;;;2.57;;
12719;SDS011;6424;48.520;11.228;2023-07-13T06:06:07;7.30;;;2.57;;
12719;SDS011;6424;48.520;11.228;2023-07-13T06:08:49;4.40;;;2.50;;
12719;SDS011;6424;48.520;11.228;2023-07-13T06:11:29;5.70;;;2.20;;
12719;SDS011;6424;48.520;11.228;2023-07-13T06:14:10;5.03;;;1.70;;
12719;SDS011;6424;48.520;11.228;2023-07-13T06:16:51;6.93;;;2.33;;
12719;SDS011;6424;48.520;11.228;2023-07-13T06:19:32;3.73;;;1.80;;
12719;SDS011;6424;48.520;11.228;2023-07-13T06:22:12;3.77;;;2.00;;
12719;SDS011;6424;48.520;11.228;2023-07-13T06:24:53;5.83;;;2.10;;
12719;SDS011;6424;48.520;11.228;2023-07-13T06:27:34;4.43;;;1.80;;
12719;SDS011;6424;48.520;11.228;2023-07-13T06:30:15;4.30;;;2.27;;
12719;SDS011;6424;48.520;11.228;2023-07-13T06:32:56;5.20;;;1.87;;
12719;SDS011;6424;48.520;11.228;2023-07-13T06:35:36;3.80;;;1.83;;
12719;SDS011;6424;48.520;11.228;2023-07-13T06:38:17;4.27;;;2.00;;
12719;SDS011;6424;48.520;11.228;2023-07-13T06:40:58;4.97;;;2.00;;
12719;SDS011;6424;48.520;11.228;2023-07-13T06:43:38;4.90;;;2.10;;
12719;SDS011;6424;48.520;11.228;2023-07-13T06:46:20;3.47;;;1.70;;
12719;SDS011;6424;48.520;11.228;2023-07-13T06:49:02;3.43;;;1.70;;
12719;SDS011;6424;48.520;11.228;2023-07-13T06:51:42;2.87;;;1.67;;
12719;SDS011;6424;48.520;11.228;2023-07-13T06:54:23;5.23;;;2.00;;
12719;SDS011;6424;48.520;11.228;2023-07-13T06:57:04;3.97;;;1.47;;
12719;SDS011;6424;48.520;11.228;2023-07-13T06:59:45;5.53;;;1.93;;
12719;SDS011;6424;48.520;11.228;2023-07-13T07:02:11;4.07;;;1.57;;
12719;SDS011;6424;48.520;11.228;2023-07-13T07:04:51;5.73;;;1.70;;
12719;SDS011;6424;48.520;11.228;2023-07-13T07:07:34;4.80;;;1.90;;
12719;SDS011;6424;48.520;11.228;2023-07-13T07:10:15;6.27;;;1.80;;
12719;SDS011;6424;48.520;11.228;2023-07-13T07:12:55;3.73;;;1.70;;
12719;SDS011;6424;48.520;11.228;2023-07-13T07:15:36;5.57;;;1.40;;
12719;SDS011;6424;48.520;11.228;2023-07-13T07:18:17;3.10;;;1.67;;
12719;SDS011;6424;48.520;11.228;2023-07-13T07:20:58;2.07;;;1.60;;
12719;SDS011;6424;48.520;11.228;2023-07-13T07:23:38;4.53;;;1.63;;
12719;SDS011;6424;48.520;11.228;2023-07-13T07:26:19;5.10;;;1.80;;
12719;SDS011;6424;48.520;11.228;2023-07-13T07:29:00;4.00;;;2.07;;
12719;SDS011;6424;48.520;11.228;2023-07-13T07:31:41;4.27;;;1.70;;
12719;SDS011;6424;48.520;11.228;2023-07-13T07:34:21;4.60;;;1.83;;
12719;SDS011;6424;48.520;11.228;2023-07-13T07:36:47;10.33;;;2.10;;
12719;SDS011;6424;48.520;11.228;2023-07-13T07:39:28;3.70;;;2.07;;
12719;SDS011;6424;48.520;11.228;2023-07-13T07:42:09;4.07;;;1.90;;
12719;SDS011;6424;48.520;11.228;2023-07-13T07:44:50;4.97;;;2.00;;
12719;SDS011;6424;48.520;11.228;2023-07-13T07:47:30;4.60;;;1.83;;
12719;SDS011;6424;48.520;11.228;2023-07-13T07:50:11;5.73;;;2.07;;
12719;SDS011;6424;48.520;11.228;2023-07-13T07:52:52;3.93;;;2.27;;
12719;SDS011;6424;48.520;11.228;2023-07-13T07:55:34;3.27;;;1.80;;
12719;SDS011;6424;48.520;11.228;2023-07-13T07:58:15;4.73;;;1.90;;
12719;SDS011;6424;48.520;11.228;2023-07-13T08:01:05;4.37;;;1.73;;
12719;SDS011;6424;48.520;11.228;2023-07-13T08:03:46;7.57;;;1.70;;
12719;SDS011;6424;48.520;11.228;2023-07-13T08:06:27;4.10;;;2.13;;
12719;SDS011;6424;48.520;11.228;2023-07-13T08:09:09;5.20;;;1.80;;
12719;SDS011;6424;48.520;11.228;2023-07-13T08:11:34;5.03;;;1.80;;
12719;SDS011;6424;48.520;11.228;2023-07-13T08:14:15;2.40;;;1.60;;
12719;SDS011;6424;48.520;11.228;2023-07-13T08:16:56;4.87;;;1.87;;
12719;SDS011;6424;48.520;11.228;2023-07-13T08:19:37;3.13;;;1.80;;
12719;SDS011;6424;48.520;11.228;2023-07-13T08:22:18;2.50;;;1.70;;
12719;SDS011;6424;48.520;11.228;2023-07-13T08:24:59;4.10;;;1.70;;
12719;SDS011;6424;48.520;11.228;2023-07-13T08:27:40;4.93;;;1.93;;
12719;SDS011;6424;48.520;11.228;2023-07-13T08:30:20;3.43;;;1.80;;
12719;SDS011;6424;48.520;11.228;2023-07-13T08:32:46;5.17;;;2.07;;
12719;SDS011;6424;48.520;11.228;2023-07-13T08:35:27;3.77;;;1.80;;
12719;SDS011;6424;48.520;11.228;2023-07-13T08:38:08;2.70;;;1.30;;
12719;SDS011;6424;48.520;11.228;2023-07-13T08:40:52;3.67;;;1.63;;
12719;SDS011;6424;48.520;11.228;2023-07-13T08:43:35;5.90;;;1.50;;
12719;SDS011;6424;48.520;11.228;2023-07-13T08:46:24;4.53;;;1.63;;
12719;SDS011;6424;48.520;11.228;2023-07-13T08:49:11;3.10;;;1.60;;
12719;SDS011;6424;48.520;11.228;2023-07-13T08:52:05;6.00;;;2.03;;
12719;SDS011;6424;48.520;11.228;2023-07-13T08:55:43;4.10;;;1.83;;
12719;SDS011;6424;48.520;11.228;2023-07-13T08:58:14;3.33;;;2.00;;
12719;SDS011;6424;48.520;11.228;2023-07-13T09:03:50;3.13;;;1.93;;
12719;SDS011;6424;48.520;11.228;2023-07-13T09:09:44;5.77;;;1.37;;
12719;SDS011;6424;48.520;11.228;2023-07-13T09:12:31;3.73;;;1.13;;
12719;SDS011;6424;48.520;11.228;2023-07-13T09:15:28;1.63;;;1.30;;
12719;SDS011;6424;48.520;11.228;2023-07-13T09:18:16;2.40;;;1.10;;
12719;SDS011;6424;48.520;11.228;2023-07-13T09:21:25;2.10;;;1.40;;
12719;SDS011;6424;48.520;11.228;2023-07-13T09:23:58;1.90;;;1.20;;
12719;SDS011;6424;48.520;11.228;2023-07-13T09:26:42;2.30;;;1.30;;
12719;SDS011;6424;48.520;11.228;2023-07-13T09:29:30;2.23;;;1.23;;
12719;SDS011;6424;48.520;11.228;2023-07-13T09:32:13;3.50;;;1.40;;
12719;SDS011;6424;48.520;11.228;2023-07-13T09:34:57;2.47;;;1.00;;
12719;SDS011;6424;48.520;11.228;2023-07-13T09:37:24;1.70;;;1.10;;
12719;SDS011;6424;48.520;11.228;2023-07-13T09:40:25;2.20;;;1.10;;
12719;SDS011;6424;48.520;11.228;2023-07-13T09:43:18;2.80;;;1.10;;
12719;SDS011;6424;48.520;11.228;2023-07-13T09:46:00;2.93;;;1.10;;
12719;SDS011;6424;48.520;11.228;2023-07-13T09:48:41;2.30;;;1.20;;
12719;SDS011;6424;48.520;11.228;2023-07-13T09:51:23;2.60;;;1.23;;
12719;SDS011;6424;48.520;11.228;2023-07-13T09:54:03;3.00;;;1.20;;
12719;SDS011;6424;48.520;11.228;2023-07-13T09:56:29;2.70;;;1.37;;
12719;SDS011;6424;48.520;11.228;2023-07-13T09:59:21;1.80;;;1.20;;
12719;SDS011;6424;48.520;11.228;2023-07-13T10:02:21;5.13;;;1.37;;
12719;SDS011;6424;48.520;11.228;2023-07-13T10:05:11;4.17;;;1.40;;
12719;SDS011;6424;48.520;11.228;2023-07-13T10:07:55;2.37;;;1.30;;
12719;SDS011;6424;48.520;11.228;2023-07-13T10:10:37;2.33;;;1.30;;
12719;SDS011;6424;48.520;11.228;2023-07-13T10:13:28;1.73;;;1.13;;
12719;SDS011;6424;48.520;11.228;2023-07-13T10:16:26;3.13;;;1.13;;
12719;SDS011;6424;48.520;11.228;2023-07-13T10:19:21;2.67;;;1.50;;
12719;SDS011;6424;48.520;11.228;2023-07-13T10:22:14;2.20;;;1.20;;
12719;SDS011;6424;48.520;11.228;2023-07-13T10:25:01;2.53;;;1.40;;
12719;SDS011;6424;48.520;11.228;2023-07-13T10:27:42;3.27;;;1.60;;
12719;SDS011;6424;48.520;11.228;2023-07-13T10:30:24;2.40;;;1.47;;
12719;SDS011;6424;48.520;11.228;2023-07-13T10:33:10;2.33;;;1.53;;
12719;SDS011;6424;48.520;11.228;2023-07-13T10:36:07;2.50;;;1.33;;
12719;SDS011;6424;48.520;11.228;2023-07-13T10:39:01;3.17;;;1.40;;
12719;SDS011;6424;48.520;11.228;2023-07-13T10:41:44;3.20;;;1.53;;
12719;SDS011;6424;48.520;11.228;2023-07-13T10:44:30;3.13;;;1.50;;
12719;SDS011;6424;48.520;11.228;2023-07-13T10:47:03;7.33;;;1.50;;
12719;SDS011;6424;48.520;11.228;2023-07-13T10:49:47;2.53;;;1.60;;
12719;SDS011;6424;48.520;11.228;2023-07-13T10:55:40;2.53;;;1.40;;
12719;SDS011;6424;48.520;11.228;2023-07-13T10:58:35;4.93;;;1.50;;
12719;SDS011;6424;48.520;11.228;2023-07-13T11:01:20;3.03;;;1.53;;
12719;SDS011;6424;48.520;11.228;2023-07-13T11:04:03;3.60;;;1.40;;
12719;SDS011;6424;48.520;11.228;2023-07-13T11:06:45;5.87;;;1.37;;
12719;SDS011;6424;48.520;11.228;2023-07-13T11:15:05;2.17;;;1.80;;
12719;SDS011;6424;48.520;11.228;2023-07-13T11:17:53;2.90;;;1.70;;
12719;SDS011;6424;48.520;11.228;2023-07-13T11:20:40;2.47;;;1.47;;
12719;SDS011;6424;48.520;11.228;2023-07-13T11:23:29;2.77;;;1.70;;
12719;SDS011;6424;48.520;11.228;2023-07-13T11:29:32;3.50;;;1.70;;
12719;SDS011;6424;48.520;11.228;2023-07-13T11:32:22;2.70;;;1.67;;
12719;SDS011;6424;48.520;11.228;2023-07-13T11:35:14;3.50;;;2.00;;
12719;SDS011;6424;48.520;11.228;2023-07-13T11:38:15;4.30;;;1.77;;
12719;SDS011;6424;48.520;11.228;2023-07-13T11:41:00;2.60;;;1.80;;
12719;SDS011;6424;48.520;11.228;2023-07-13T11:43:44;3.70;;;1.63;;
12719;SDS011;6424;48.520;11.228;2023-07-13T11:46:26;2.30;;;1.57;;
12719;SDS011;6424;48.520;11.228;2023-07-13T11:49:07;3.83;;;1.67;;
12719;SDS011;6424;48.520;11.228;2023-07-13T11:51:53;4.33;;;1.80;;
12719;SDS011;6424;48.520;11.228;2023-07-13T11:54:41;4.20;;;2.13;;
12719;SDS011;6424;48.520;11.228;2023-07-13T11:57:32;2.57;;;1.60;;
12719;SDS011;6424;48.520;11.228;2023-07-13T12:00:02;3.17;;;1.70;;
12719;SDS011;6424;48.520;11.228;2023-07-13T12:02:49;4.23;;;1.90;;
12719;SDS011;6424;48.520;11.228;2023-07-13T12:05:32;2.63;;;1.57;;
12719;SDS011;6424;48.520;11.228;2023-07-13T12:08:15;2.77;;;1.97;;
12719;SDS011;6424;48.520;11.228;2023-07-13T12:10:59;2.90;;;1.70;;
12719;SDS011;6424;48.520;11.228;2023-07-13T12:13:45;1.73;;;1.33;;
12719;SDS011;6424;48.520;11.228;2023-07-13T12:16:31;2.97;;;1.93;;
12719;SDS011;6424;48.520;11.228;2023-07-13T12:19:23;2.93;;;1.90;;
12719;SDS011;6424;48.520;11.228;2023-07-13T12:22:08;2.77;;;1.47;;
12719;SDS011;6424;48.520;11.228;2023-07-13T12:24:51;2.70;;;1.70;;
12719;SDS011;6424;48.520;11.228;2023-07-13T12:27:34;3.60;;;1.63;;
12719;SDS011;6424;48.520;11.228;2023-07-13T12:30:28;4.57;;;1.77;;
12719;SDS011;6424;48.520;11.228;2023-07-13T12:33:13;3.23;;;1.33;;
12719;SDS011;6424;48.520;11.228;2023-07-13T12:35:56;2.93;;;1.43;;
12719;SDS011;6424;48.520;11.228;2023-07-13T12:38:24;3.27;;;1.47;;
12719;SDS011;6424;48.520;11.228;2023-07-13T12:41:05;2.27;;;1.67;;
12719;SDS011;6424;48.520;11.228;2023-07-13T12:43:49;2.93;;;1.60;;
12719;SDS011;6424;48.520;11.228;2023-07-13T12:46:30;3.53;;;1.43;;
12719;SDS011;6424;48.520;11.228;2023-07-13T12:48:57;2.30;;;1.43;;
12719;SDS011;6424;48.520;11.228;2023-07-13T12:51:38;3.83;;;1.90;;
12719;SDS011;6424;48.520;11.228;2023-07-13T12:54:20;3.53;;;1.47;;
12719;SDS011;6424;48.520;11.228;2023-07-13T12:57:01;2.20;;;1.33;;
12719;SDS011;6424;48.520;11.228;2023-07-13T12:59:43;2.13;;;1.63;;
12719;SDS011;6424;48.520;11.228;2023-07-13T13:05:10;3.67;;;1.80;;
12719;SDS011;6424;48.520;11.228;2023-07-13T13:07:54;2.90;;;1.50;;
12719;SDS011;6424;48.520;11.228;2023-07-13T13:10:35;2.40;;;1.33;;
12719;SDS011;6424;48.520;11.228;2023-07-13T13:13:16;2.93;;;1.60;;
12719;SDS011;6424;48.520;11.228;2023-07-13T13:16:01;2.50;;;1.50;;
12719;SDS011;6424;48.520;11.228;2023-07-13T13:19:05;3.27;;;1.37;;
12719;SDS011;6424;48.520;11.228;2023-07-13T13:21:54;2.20;;;1.63;;
12719;SDS011;6424;48.520;11.228;2023-07-13T13:24:37;3.77;;;1.77;;
12719;SDS011;6424;48.520;11.228;2023-07-13T13:27:19;3.80;;;1.83;;
12719;SDS011;6424;48.520;11.228;2023-07-13T13:29:48;4.23;;;1.60;;
12719;SDS011;6424;48.520;11.228;2023-07-13T13:32:31;3.93;;;1.57;;
12719;SDS011;6424;48.520;11.228;2023-07-13T13:35:13;4.00;;;1.43;;
12719;SDS011;6424;48.520;11.228;2023-07-13T13:37:58;1.90;;;1.27;;
12719;SDS011;6424;48.520;11.228;2023-07-13T13:40:39;3.53;;;1.30;;
12719;SDS011;6424;48.520;11.228;2023-07-13T13:43:21;2.70;;;1.60;;
12719;SDS011;6424;48.520;11.228;2023-07-13T13:46:15;1.87;;;1.30;;
12719;SDS011;6424;48.520;11.228;2023-07-13T13:48:58;1.83;;;1.30;;
12719;SDS011;6424;48.520;11.228;2023-07-13T13:51:39;2.30;;;1.30;;
12719;SDS011;6424;48.520;11.228;2023-07-13T13:54:05;3.20;;;1.57;;
12719;SDS011;6424;48.520;11.228;2023-07-13T13:56:54;3.63;;;1.40;;
12719;SDS011;6424;48.520;11.228;2023-07-13T13:59:35;3.93;;;1.60;;
12719;SDS011;6424;48.520;11.228;2023-07-13T14:02:23;2.13;;;1.23;;
12719;SDS011;6424;48.520;11.228;2023-07-13T14:05:09;2.07;;;1.20;;
12719;SDS011;6424;48.520;11.228;2023-07-13T14:07:53;1.77;;;1.20;;
12719;SDS011;6424;48.520;11.228;2023-07-13T14:10:35;2.67;;;1.37;;
12719;SDS011;6424;48.520;11.228;2023-07-13T14:13:17;3.97;;;1.20;;
12719;SDS011;6424;48.520;11.228;2023-07-13T14:16:11;4.40;;;1.33;;
12719;SDS011;6424;48.520;11.228;2023-07-13T14:18:53;2.00;;;1.40;;
12719;SDS011;6424;48.520;11.228;2023-07-13T14:21:36;2.33;;;1.33;;
12719;SDS011;6424;48.520;11.228;2023-07-13T14:24:17;2.00;;;1.43;;
12719;SDS011;6424;48.520;11.228;2023-07-13T14:26:57;1.83;;;1.30;;
12719;SDS011;6424;48.520;11.228;2023-07-13T14:29:23;1.93;;;1.30;;
12719;SDS011;6424;48.520;11.228;2023-07-13T14:32:05;2.73;;;1.40;;
12719;SDS011;6424;48.520;11.228;2023-07-13T14:34:48;2.33;;;1.50;;
12719;SDS011;6424;48.520;11.228;2023-07-13T14:37:29;4.37;;;1.40;;
12719;SDS011;6424;48.520;11.228;2023-07-13T14:40:17;1.33;;;1.03;;
12719;SDS011;6424;48.520;11.228;2023-07-13T14:43:04;1.80;;;1.10;;
12719;SDS011;6424;48.520;11.228;2023-07-13T14:45:48;3.40;;;1.40;;
12719;SDS011;6424;48.520;11.228;2023-07-13T14:48:30;3.53;;;1.47;;
12719;SDS011;6424;48.520;11.228;2023-07-13T14:51:11;4.83;;;1.30;;
12719;SDS011;6424;48.520;11.228;2023-07-13T14:53:52;4.03;;;1.17;;
12719;SDS011;6424;48.520;11.228;2023-07-13T14:56:32;2.13;;;1.30;;
12719;SDS011;6424;48.520;11.228;2023-07-13T14:59:13;2.17;;;1.03;;
12719;SDS011;6424;48.520;11.228;2023-07-13T15:01:54;2.83;;;1.23;;
12719;SDS011;6424;48.520;11.228;2023-07-13T15:04:35;5.00;;;1.40;;
12719;SDS011;6424;48.520;11.228;2023-07-13T15:07:15;2.20;;;1.10;;
12719;SDS011;6424;48.520;11.228;2023-07-13T15:09:58;2.93;;;1.17;;
12719;SDS011;6424;48.520;11.228;2023-07-13T15:12:38;2.47;;;1.37;;
12719;SDS011;6424;48.520;11.228;2023-07-13T15:15:04;8.23;;;1.50;;
12719;SDS011;6424;48.520;11.228;2023-07-13T15:17:45;2.60;;;1.50;;
12719;SDS011;6424;48.520;11.228;2023-07-13T15:20:29;1.50;;;1.23;;
12719;SDS011;6424;48.520;11.228;2023-07-13T15:23:17;1.90;;;1.30;;
12719;SDS011;6424;48.520;11.228;2023-07-13T15:25:57;1.93;;;1.30;;
12719;SDS011;6424;48.520;11.228;2023-07-13T15:28:38;3.73;;;1.30;;
12719;SDS011;6424;48.520;11.228;2023-07-13T15:31:23;4.37;;;1.40;;
12719;SDS011;6424;48.520;11.228;2023-07-13T15:34:17;2.13;;;1.30;;
12719;SDS011;6424;48.520;11.228;2023-07-13T15:37:09;2.47;;;1.40;;
12719;SDS011;6424;48.520;11.228;2023-07-13T15:39:56;2.27;;;1.13;;
12719;SDS011;6424;48.520;11.228;2023-07-13T15:42:36;6.10;;;1.40;;
12719;SDS011;6424;48.520;11.228;2023-07-13T15:45:23;2.60;;;1.33;;
12719;SDS011;6424;48.520;11.228;2023-07-13T15:48:15;2.80;;;1.20;;
12719;SDS011;6424;48.520;11.228;2023-07-13T15:51:02;3.03;;;1.23;;
12719;SDS011;6424;48.520;11.228;2023-07-13T15:53:44;3.80;;;1.60;;
12719;SDS011;6424;48.520;11.228;2023-07-13T15:56:26;2.50;;;1.30;;
12719;SDS011;6424;48.520;11.228;2023-07-13T15:59:11;10.30;;;9.30;;
12719;SDS011;6424;48.520;11.228;2023-07-13T16:01:55;3.77;;;2.90;;
12719;SDS011;6424;48.520;11.228;2023-07-13T16:04:36;4.33;;;1.70;;
12719;SDS011;6424;48.520;11.228;2023-07-13T16:07:17;2.00;;;1.40;;
12719;SDS011;6424;48.520;11.228;2023-07-13T16:09:59;2.80;;;1.47;;
12719;SDS011;6424;48.520;11.228;2023-07-13T16:12:40;4.03;;;1.93;;
12719;SDS011;6424;48.520;11.228;2023-07-13T16:15:21;1.70;;;1.33;;
12719;SDS011;6424;48.520;11.228;2023-07-13T16:18:02;1.60;;;1.10;;
12719;SDS011;6424;48.520;11.228;2023-07-13T16:20:45;2.00;;;1.80;;
12719;SDS011;6424;48.520;11.228;2023-07-13T16:23:28;3.33;;;2.50;;
12719;SDS011;6424;48.520;11.228;2023-07-13T16:26:19;3.60;;;2.10;;
12719;SDS011;6424;48.520;11.228;2023-07-13T16:29:23;3.07;;;1.57;;
12719;SDS011;6424;48.520;11.228;2023-07-13T16:32:10;1.87;;;1.20;;
12719;SDS011;6424;48.520;11.228;2023-07-13T16:34:52;2.10;;;1.17;;
12719;SDS011;6424;48.520;11.228;2023-07-13T16:37:33;2.27;;;1.30;;